首页
METAR-TAF:

METAR-TAF

机场 :

Fort Good Hope, 西北特區, 加拿大

纬度: 66-16N, 经度: 128-37W, 海拔: 60米

当前天气观测

该预报发布于34分钟前的18:00 UTC
风速7节,风向南转西南
温度 -21°C
湿度 92%
气压 1014 hPa
能見度: 40.2公里
少量云层高于500英尺
少量云层高于4000英尺
散云层高于24000英尺

METAR: CYGH 311800Z 20007KT 25SM FEW005 FEW040 SCT240 M21/M22 A2993 RMK SC1SC1CI2 SC TR SLP146

时间: 12:34 (18:34 UTC)

预报

该预报发布于47分钟前的17:47 UTC
预报有效从31日的 18点(UTC)到 31日的 23点(UTC)
风速5节,风向
能見度: 10公里
少量云层高于1000英尺
少量云层高于24000英尺
短暂存在
从 31日的 18点(UTC)到 31日的 23点(UTC)
能見度: 10公里
散云层高于1000英尺
小雪
几率 30%
从 31日的 21点(UTC)到 31日的 23点(UTC)
能見度: 3.2公里
多云层高于1000英尺
轻雾

TAF: CYGH 311747Z 3118/3123 19005KT P6SM FEW010 FEW240 TEMPO 3118/3123 P6SM -SN SCT010 PROB30 3121/3123 2SM BR BKN010 RMK NXT FCST WILL BE ISSUED AT 021415Z

超过4000个机场的气象观测和天气预报(METAR&TAF报告)。

可查询的气象台以黄色和红色小点在地图上表示。

将鼠标移到小点上方,可查看气象台名称。

然后点击查看天气观测和预报。

如需切换地图:点击带黑十字的绿色按钮放大地图;点击带横线的绿色按钮缩小地图;或者点击绿色箭头查看邻近地区的地图。


METAR-TAF: